createdAt,value
2018-12-10T00:00:13.741Z,1010.41
2018-12-10T00:01:13.693Z,1010.40
2018-12-10T00:02:13.650Z,1010.41
2018-12-10T00:03:13.602Z,1010.39
2018-12-10T00:04:13.561Z,1010.42
2018-12-10T00:05:13.545Z,1010.43
2018-12-10T00:06:13.478Z,1010.39
2018-12-10T00:07:13.436Z,1010.41
2018-12-10T00:08:13.392Z,1010.41
2018-12-10T00:09:13.340Z,1010.44
2018-12-10T00:10:13.320Z,1010.44
2018-12-10T00:11:13.260Z,1010.41
2018-12-10T00:12:13.213Z,1010.40
2018-12-10T00:13:13.165Z,1010.42
2018-12-10T00:14:13.122Z,1010.48
2018-12-10T00:15:13.106Z,1010.48
2018-12-10T00:16:13.058Z,1010.47
2018-12-10T00:17:12.993Z,1010.47
2018-12-10T00:18:12.951Z,1010.42
2018-12-10T00:19:12.920Z,1010.43
2018-12-10T00:20:12.862Z,1010.43
2018-12-10T00:21:12.839Z,1010.43
2018-12-10T00:22:12.767Z,1010.42
2018-12-10T00:23:12.722Z,1010.47
2018-12-10T00:24:12.681Z,1010.45
2018-12-10T00:25:12.641Z,1010.50
2018-12-10T00:26:12.599Z,1010.50
2018-12-10T00:27:12.572Z,1010.55
2018-12-10T00:28:12.503Z,1010.51
2018-12-10T00:29:12.467Z,1010.57
2018-12-10T00:30:12.420Z,1010.54
2018-12-10T00:31:12.379Z,1010.50
2018-12-10T00:32:12.354Z,1010.55
2018-12-10T00:33:12.285Z,1010.62
2018-12-10T00:34:12.239Z,1010.54
2018-12-10T00:35:12.193Z,1010.60
2018-12-10T00:36:12.150Z,1010.59
2018-12-10T00:37:12.137Z,1010.63
2018-12-10T00:38:12.073Z,1010.64
2018-12-10T00:39:12.027Z,1010.64
2018-12-10T00:40:11.979Z,1010.73
2018-12-10T00:41:11.932Z,1010.78
2018-12-10T00:42:11.916Z,1010.79
2018-12-10T00:43:11.849Z,1010.82
2018-12-10T00:44:11.803Z,1010.84
2018-12-10T00:45:11.752Z,1010.84
2018-12-10T00:46:11.709Z,1010.89
2018-12-10T00:47:11.667Z,1010.90
2018-12-10T00:48:11.648Z,1010.95
2018-12-10T00:49:11.584Z,1010.92
2018-12-10T00:50:11.542Z,1010.94
2018-12-10T00:51:11.497Z,1010.91
2018-12-10T00:52:11.452Z,1010.97
2018-12-10T00:53:11.422Z,1010.96
2018-12-10T00:54:11.358Z,1010.91
2018-12-10T00:55:11.314Z,1010.94
2018-12-10T00:56:11.293Z,1010.98
2018-12-10T00:57:11.231Z,1011.02
2018-12-10T00:58:11.184Z,1011.05
2018-12-10T00:59:11.158Z,1010.99
2018-12-10T01:00:11.089Z,1011.07
2018-12-10T01:01:11.054Z,1011.05
2018-12-10T01:02:11.009Z,1011.04
2018-12-10T01:03:10.969Z,1011.06
2018-12-10T01:04:10.950Z,1011.06
2018-12-10T01:05:10.874Z,1011.07
2018-12-10T01:06:10.829Z,1011.07
2018-12-10T01:07:10.785Z,1011.06
2018-12-10T01:08:10.741Z,1011.12
2018-12-10T01:09:10.706Z,1011.09
2018-12-10T01:10:10.685Z,1011.14
2018-12-10T01:11:10.617Z,1011.11
2018-12-10T01:12:10.569Z,1011.11
2018-12-10T01:13:10.520Z,1011.15
2018-12-10T01:14:10.476Z,1011.15
2018-12-10T01:15:10.460Z,1011.19
2018-12-10T01:16:10.392Z,1011.19
2018-12-10T01:17:10.367Z,1011.16
2018-12-10T01:18:10.301Z,1011.26
2018-12-10T01:19:10.258Z,1011.33
2018-12-10T01:20:10.215Z,1011.36
2018-12-10T01:21:10.175Z,1011.43
2018-12-10T01:22:10.152Z,1011.43
2018-12-10T01:23:10.086Z,1011.48
2018-12-10T01:24:10.063Z,1011.51
2018-12-10T01:25:09.992Z,1011.53
2018-12-10T01:26:09.944Z,1011.50
2018-12-10T01:27:09.906Z,1011.41
2018-12-10T01:28:09.854Z,1011.46
2018-12-10T01:29:09.842Z,1011.42
2018-12-10T01:30:09.775Z,1011.50
2018-12-10T01:31:09.726Z,1011.51
2018-12-10T01:32:09.703Z,1011.55
2018-12-10T01:33:09.644Z,1011.51
2018-12-10T01:34:09.621Z,1011.54
2018-12-10T01:35:09.556Z,1011.56
2018-12-10T01:36:09.512Z,1011.62
2018-12-10T01:37:09.460Z,1011.60
2018-12-10T01:38:09.412Z,1011.62
2018-12-10T01:39:09.427Z,1011.61
2018-12-10T01:40:09.323Z,1011.67
2018-12-10T01:41:09.288Z,1011.63
2018-12-10T01:42:09.244Z,1011.62
2018-12-10T01:43:09.225Z,1011.61
2018-12-10T01:44:09.182Z,1011.64
2018-12-10T01:45:09.228Z,1011.65
2018-12-10T01:46:09.059Z,1011.69
2018-12-10T01:47:09.020Z,1011.73
2018-12-10T01:48:08.978Z,1011.76
2018-12-10T01:49:08.926Z,1011.76
2018-12-10T01:50:08.904Z,1011.74
2018-12-10T01:51:08.836Z,1011.79
2018-12-10T01:52:08.792Z,1011.79
2018-12-10T01:53:08.776Z,1011.80
2018-12-10T01:54:08.711Z,1011.84
2018-12-10T01:55:08.690Z,1011.86
2018-12-10T01:56:08.621Z,1011.88
2018-12-10T01:57:08.568Z,1011.89
2018-12-10T01:58:08.523Z,1011.91
2018-12-10T01:59:08.482Z,1011.90
2018-12-10T02:00:08.461Z,1011.95
2018-12-10T02:01:08.398Z,1012.03
2018-12-10T02:02:08.354Z,1011.97
2018-12-10T02:03:08.304Z,1012.05
2018-12-10T02:04:08.280Z,1012.01
2018-12-10T02:05:08.244Z,1012.04
2018-12-10T02:06:08.177Z,1012.04
2018-12-10T02:07:08.129Z,1012.09
2018-12-10T02:08:08.082Z,1012.07
2018-12-10T02:09:08.040Z,1012.03
2018-12-10T02:10:07.990Z,1012.07
2018-12-10T02:11:07.973Z,1012.10
2018-12-10T02:12:07.900Z,1012.06
2018-12-10T02:13:07.859Z,1012.09
2018-12-10T02:14:07.815Z,1012.08
2018-12-10T02:15:07.773Z,1012.08
2018-12-10T02:16:07.728Z,1012.07
2018-12-10T02:17:07.698Z,1012.03
2018-12-10T02:18:07.631Z,1012.05
2018-12-10T02:19:07.617Z,1012.05
2018-12-10T02:20:07.551Z,1012.01
2018-12-10T02:21:07.498Z,1012.03
2018-12-10T02:22:07.453Z,1012.09
2018-12-10T02:23:07.412Z,1012.08
2018-12-10T02:24:07.388Z,1012.10
2018-12-10T02:25:07.324Z,1012.10
2018-12-10T02:26:07.286Z,1012.14
2018-12-10T02:27:07.234Z,1012.19
2018-12-10T02:28:07.189Z,1012.18
2018-12-10T02:29:07.164Z,1012.19
2018-12-10T02:30:07.121Z,1012.20
2018-12-10T02:31:07.049Z,1012.20
2018-12-10T02:32:07.005Z,1012.20
2018-12-10T02:33:06.967Z,1012.24
2018-12-10T02:34:06.947Z,1012.23
2018-12-10T02:35:06.896Z,1012.25
2018-12-10T02:36:06.829Z,1012.26
2018-12-10T02:37:06.789Z,1012.27
2018-12-10T02:38:06.745Z,1012.23
2018-12-10T02:39:06.705Z,1012.31
2018-12-10T02:40:06.681Z,1012.30
2018-12-10T02:41:06.606Z,1012.33
2018-12-10T02:42:06.561Z,1012.29
2018-12-10T02:43:06.617Z,1012.28
2018-12-10T02:44:06.476Z,1012.31
2018-12-10T02:45:06.467Z,1012.34
2018-12-10T02:46:06.388Z,1012.30
2018-12-10T02:47:06.346Z,1012.35
2018-12-10T02:48:06.305Z,1012.38
2018-12-10T02:49:06.251Z,1012.43
2018-12-10T02:50:06.204Z,1012.39
2018-12-10T02:51:06.187Z,1012.39
2018-12-10T02:52:06.130Z,1012.36
2018-12-10T02:53:06.073Z,1012.42
2018-12-10T02:54:06.033Z,1012.40
2018-12-10T02:55:06.003Z,1012.42
2018-12-10T02:56:05.940Z,1012.40
2018-12-10T02:57:05.937Z,1012.36
2018-12-10T02:58:05.856Z,1012.36
2018-12-10T02:59:05.804Z,1012.40
2018-12-10T03:00:05.761Z,1012.38
2018-12-10T03:01:05.727Z,1012.41
2018-12-10T03:02:05.686Z,1012.37
2018-12-10T03:03:05.656Z,1012.38
2018-12-10T03:04:05.590Z,1012.38
2018-12-10T03:05:05.537Z,1012.39
2018-12-10T03:06:05.494Z,1012.36
2018-12-10T03:07:05.458Z,1012.32
2018-12-10T03:08:05.434Z,1012.32
2018-12-10T03:09:05.362Z,1012.30
2018-12-10T03:10:05.316Z,1012.32
2018-12-10T03:11:05.274Z,1012.36
2018-12-10T03:12:05.227Z,1012.34
2018-12-10T03:13:05.216Z,1012.42
2018-12-10T03:14:05.147Z,1012.37
2018-12-10T03:15:05.100Z,1012.44
2018-12-10T03:16:05.054Z,1012.48
2018-12-10T03:17:05.005Z,1012.51
2018-12-10T03:18:04.960Z,1012.53
2018-12-10T03:19:04.963Z,1012.53
2018-12-10T03:20:04.870Z,1012.50
2018-12-10T03:21:04.833Z,1012.54
2018-12-10T03:22:04.787Z,1012.53
2018-12-10T03:23:04.737Z,1012.59
2018-12-10T03:24:04.720Z,1012.54
2018-12-10T03:25:04.658Z,1012.54
2018-12-10T03:26:04.612Z,1012.46
2018-12-10T03:27:04.593Z,1012.55
2018-12-10T03:28:04.521Z,1012.59
2018-12-10T03:29:04.466Z,1012.59
2018-12-10T03:30:04.426Z,1012.59
2018-12-10T03:31:04.382Z,1012.61
2018-12-10T03:32:04.357Z,1012.60
2018-12-10T03:33:04.297Z,1012.63
2018-12-10T03:34:04.253Z,1012.65
2018-12-10T03:35:04.204Z,1012.66
2018-12-10T03:36:04.175Z,1012.63
2018-12-10T03:37:04.132Z,1012.63
2018-12-10T03:38:04.065Z,1012.61
2018-12-10T03:39:04.027Z,1012.66
2018-12-10T03:40:03.985Z,1012.62
2018-12-10T03:41:04.081Z,1012.67
2018-12-10T03:42:03.886Z,1012.63
2018-12-10T03:43:03.842Z,1012.65
2018-12-10T03:44:03.794Z,1012.69
2018-12-10T03:45:03.762Z,1012.73
2018-12-10T03:46:03.714Z,1012.77
2018-12-10T03:47:03.702Z,1012.75
2018-12-10T03:48:03.623Z,1012.72
2018-12-10T03:49:03.572Z,1012.73
2018-12-10T03:50:03.526Z,1012.69
2018-12-10T03:51:03.482Z,1012.70
2018-12-10T03:52:03.467Z,1012.72
2018-12-10T03:53:03.426Z,1012.74
2018-12-10T03:54:03.358Z,1012.77
2018-12-10T03:55:03.305Z,1012.76
2018-12-10T03:56:03.261Z,1012.73
2018-12-10T03:57:03.222Z,1012.75
2018-12-10T03:58:03.205Z,1012.71
2018-12-10T03:59:03.136Z,1012.75
2018-12-10T04:00:03.090Z,1012.79
2018-12-10T04:01:03.036Z,1012.74
2018-12-10T04:02:03.094Z,1012.79
2018-12-10T04:03:02.950Z,1012.79
2018-12-10T04:04:02.927Z,1012.90
2018-12-10T04:05:02.866Z,1012.82
2018-12-10T04:06:02.823Z,1012.86
2018-12-10T04:07:02.781Z,1012.84
2018-12-10T04:08:02.734Z,1012.89
2018-12-10T04:09:02.703Z,1012.88
2018-12-10T04:10:02.635Z,1012.89
2018-12-10T04:11:02.600Z,1012.84
2018-12-10T04:12:02.555Z,1012.86
2018-12-10T04:13:02.502Z,1012.87
2018-12-10T04:14:02.485Z,1012.92
2018-12-10T04:15:02.412Z,1012.90
2018-12-10T04:16:02.367Z,1012.88
2018-12-10T04:17:02.327Z,1012.94
2018-12-10T04:18:02.284Z,1012.94
2018-12-10T04:19:02.241Z,1013.00
2018-12-10T04:20:02.223Z,1013.02
2018-12-10T04:21:02.146Z,1013.01
2018-12-10T04:22:02.122Z,1012.95
2018-12-10T04:23:02.058Z,1012.97
2018-12-10T04:24:02.011Z,1012.96
2018-12-10T04:25:01.973Z,1013.01
2018-12-10T04:26:01.931Z,1013.06
2018-12-10T04:27:01.909Z,1013.04
2018-12-10T04:28:01.837Z,1013.04
2018-12-10T04:29:01.794Z,1013.02
2018-12-10T04:30:01.751Z,1013.01
2018-12-10T04:31:01.710Z,1013.01
2018-12-10T04:32:01.661Z,1013.03
2018-12-10T04:33:01.628Z,1013.02
2018-12-10T04:34:01.568Z,1013.02
2018-12-10T04:35:01.537Z,1013.00
2018-12-10T04:36:01.476Z,1012.99
2018-12-10T04:37:01.464Z,1012.99
2018-12-10T04:38:01.396Z,1013.00
2018-12-10T04:39:01.351Z,1013.04
2018-12-10T04:40:01.314Z,1013.03
2018-12-10T04:41:01.255Z,1013.08
2018-12-10T04:42:01.238Z,1013.08
2018-12-10T04:43:01.176Z,1013.10
2018-12-10T04:44:01.131Z,1013.09
2018-12-10T04:45:01.077Z,1013.13
2018-12-10T04:46:01.034Z,1013.13
2018-12-10T04:47:00.990Z,1013.08
2018-12-10T04:48:00.971Z,1013.10
2018-12-10T04:49:00.905Z,1013.07
2018-12-10T04:50:00.861Z,1013.09
2018-12-10T04:51:00.820Z,1013.12
2018-12-10T04:52:00.811Z,1013.18
2018-12-10T04:53:00.721Z,1013.17
2018-12-10T04:54:00.814Z,1013.22
2018-12-10T04:55:00.633Z,1013.21
2018-12-10T04:56:00.589Z,1013.28
2018-12-10T04:57:00.555Z,1013.30
2018-12-10T04:58:00.534Z,1013.29
2018-12-10T04:59:00.462Z,1013.38
2018-12-10T05:00:00.409Z,1013.34
2018-12-10T05:01:00.375Z,1013.36
2018-12-10T05:02:00.333Z,1013.42
2018-12-10T05:03:00.297Z,1013.39
2018-12-10T05:04:00.268Z,1013.39
2018-12-10T05:05:00.188Z,1013.44
2018-12-10T05:06:00.145Z,1013.43
2018-12-10T05:07:00.103Z,1013.45
2018-12-10T05:08:00.060Z,1013.48
2018-12-10T05:09:00.047Z,1013.50
2018-12-10T05:09:59.976Z,1013.52
2018-12-10T05:10:59.929Z,1013.49
2018-12-10T05:11:59.883Z,1013.52
2018-12-10T05:12:59.833Z,1013.59
2018-12-10T05:13:59.793Z,1013.46
2018-12-10T05:14:59.778Z,1013.53
2018-12-10T05:15:59.709Z,1013.52
2018-12-10T05:16:59.655Z,1013.54
2018-12-10T05:17:59.612Z,1013.51
2018-12-10T05:18:59.566Z,1013.56
2018-12-10T05:19:59.526Z,1013.54
2018-12-10T05:20:59.511Z,1013.59
2018-12-10T05:21:59.442Z,1013.58
2018-12-10T05:22:59.501Z,1013.61
2018-12-10T05:23:59.351Z,1013.57
2018-12-10T05:24:59.304Z,1013.63
2018-12-10T05:25:59.279Z,1013.59
2018-12-10T05:27:01.179Z,1013.63
2018-12-10T05:27:59.168Z,1013.64
2018-12-10T05:28:59.130Z,1013.57
2018-12-10T05:29:59.086Z,1013.57
2018-12-10T05:30:59.062Z,1013.58
2018-12-10T05:31:59.054Z,1013.63
2018-12-10T05:32:58.954Z,1013.59
2018-12-10T05:33:58.910Z,1013.62
2018-12-10T05:34:58.892Z,1013.62
2018-12-10T05:35:58.824Z,1013.57
2018-12-10T05:36:58.767Z,1013.66
2018-12-10T05:37:58.722Z,1013.65
2018-12-10T05:38:58.681Z,1013.65
2018-12-10T05:39:58.634Z,1013.74
2018-12-10T05:40:58.618Z,1013.72
2018-12-10T05:41:58.553Z,1013.71
2018-12-10T05:42:58.510Z,1013.76
2018-12-10T05:43:58.466Z,1013.74
2018-12-10T05:44:58.414Z,1013.74
2018-12-10T05:45:58.395Z,1013.77
2018-12-10T05:46:58.331Z,1013.75
2018-12-10T05:47:58.285Z,1013.77
2018-12-10T05:48:58.235Z,1013.78
2018-12-10T05:49:58.216Z,1013.81
2018-12-10T05:50:58.174Z,1013.82
2018-12-10T05:51:58.103Z,1013.88
2018-12-10T05:52:58.078Z,1013.86
2018-12-10T05:53:58.025Z,1013.82
2018-12-10T05:54:57.979Z,1013.84
2018-12-10T05:55:57.953Z,1013.87
2018-12-10T05:56:57.887Z,1013.97
2018-12-10T05:57:57.835Z,1013.98
2018-12-10T05:58:57.789Z,1014.06
2018-12-10T05:59:57.746Z,1014.03
2018-12-10T06:00:57.734Z,1014.00
2018-12-10T06:01:57.665Z,1014.01
2018-12-10T06:02:57.615Z,1014.06
2018-12-10T06:03:57.569Z,1014.04
2018-12-10T06:04:57.531Z,1014.01
2018-12-10T06:05:57.488Z,1013.99
2018-12-10T06:06:57.469Z,1014.06
2018-12-10T06:07:57.400Z,1014.03
2018-12-10T06:08:57.347Z,1014.02
2018-12-10T06:09:57.302Z,1014.03
2018-12-10T06:10:57.259Z,1014.07
2018-12-10T06:11:57.242Z,1014.07
2018-12-10T06:12:57.177Z,1014.09
2018-12-10T06:13:57.130Z,1014.06
2018-12-10T06:14:57.087Z,1014.05
2018-12-10T06:15:57.042Z,1014.09
2018-12-10T06:16:56.989Z,1014.05
2018-12-10T06:17:56.970Z,1014.04
2018-12-10T06:18:56.910Z,1014.07
2018-12-10T06:19:56.864Z,1014.07
2018-12-10T06:20:56.812Z,1014.08
2018-12-10T06:21:56.770Z,1014.09
2018-12-10T06:22:56.747Z,1014.14
2018-12-10T06:23:56.679Z,1014.12
2018-12-10T06:24:56.641Z,1014.15
2018-12-10T06:25:56.599Z,1014.17
2018-12-10T06:26:56.578Z,1014.21
2018-12-10T06:27:56.506Z,1014.13
2018-12-10T06:28:56.457Z,1014.18
2018-12-10T06:29:56.412Z,1014.20
2018-12-10T06:30:56.368Z,1014.18
2018-12-10T06:31:56.324Z,1014.23
2018-12-10T06:32:56.313Z,1014.27
2018-12-10T06:33:56.241Z,1014.20
2018-12-10T06:34:56.191Z,1014.26
2018-12-10T06:35:56.146Z,1014.28
2018-12-10T06:36:56.148Z,1014.29
2018-12-10T06:37:56.064Z,1014.30
2018-12-10T06:38:56.018Z,1014.34
2018-12-10T06:39:55.974Z,1014.34
2018-12-10T06:40:55.924Z,1014.34
2018-12-10T06:41:55.875Z,1014.32
2018-12-10T06:42:55.857Z,1014.31
2018-12-10T06:43:55.785Z,1014.37
2018-12-10T06:44:55.747Z,1014.34
2018-12-10T06:45:55.707Z,1014.37
2018-12-10T06:46:55.661Z,1014.36
2018-12-10T06:47:55.637Z,1014.40
2018-12-10T06:48:55.566Z,1014.38
2018-12-10T06:49:55.519Z,1014.41
2018-12-10T06:50:55.482Z,1014.34
2018-12-10T06:51:55.437Z,1014.35
2018-12-10T06:52:55.405Z,1014.35
2018-12-10T06:53:55.340Z,1014.39
2018-12-10T06:54:55.296Z,1014.41
2018-12-10T06:55:55.251Z,1014.41
2018-12-10T06:56:55.213Z,1014.36
2018-12-10T06:57:55.220Z,1014.34
2018-12-10T06:58:55.122Z,1014.31
2018-12-10T06:59:55.078Z,1014.38
2018-12-10T07:00:55.024Z,1014.43
2018-12-10T07:01:54.983Z,1014.46
2018-12-10T07:02:54.934Z,1014.46
2018-12-10T07:03:54.959Z,1014.50
2018-12-10T07:04:54.854Z,1014.49
2018-12-10T07:05:54.810Z,1014.49
2018-12-10T07:06:54.759Z,1014.47
2018-12-10T07:07:54.712Z,1014.50
2018-12-10T07:08:54.673Z,1014.46
2018-12-10T07:09:54.754Z,1014.48
2018-12-10T07:10:55.181Z,1014.48
2018-12-10T07:11:55.537Z,1014.46
2018-12-10T07:12:56.426Z,1014.50
2018-12-10T07:13:54.556Z,1014.51
2018-12-10T07:14:54.609Z,1014.48
2018-12-10T07:15:54.398Z,1014.52
2018-12-10T07:16:54.584Z,1014.54
2018-12-10T07:17:54.295Z,1014.52
2018-12-10T07:18:54.348Z,1014.56
2018-12-10T07:19:56.194Z,1014.56
2018-12-10T07:20:54.870Z,1014.57
2018-12-10T07:21:55.688Z,1014.59
2018-12-10T07:22:54.045Z,1014.59
2018-12-10T07:23:53.999Z,1014.55
2018-12-10T07:24:53.966Z,1014.59
2018-12-10T07:25:53.905Z,1014.62
2018-12-10T07:26:53.857Z,1014.58
2018-12-10T07:27:53.808Z,1014.53
2018-12-10T07:28:53.770Z,1014.56
2018-12-10T07:29:53.750Z,1014.57
2018-12-10T07:30:54.912Z,1014.60
2018-12-10T07:31:53.637Z,1014.64
2018-12-10T07:32:53.586Z,1014.66
2018-12-10T07:33:53.539Z,1014.68
2018-12-10T07:34:53.522Z,1014.76
2018-12-10T07:35:53.447Z,1014.74
2018-12-10T07:36:53.416Z,1014.70
2018-12-10T07:37:53.366Z,1014.67
2018-12-10T07:38:53.317Z,1014.65
2018-12-10T07:39:53.267Z,1014.72
2018-12-10T07:40:57.184Z,1014.78
2018-12-10T07:41:53.198Z,1014.80
2018-12-10T07:42:54.684Z,1014.81
2018-12-10T07:43:53.096Z,1014.82
2018-12-10T07:44:53.045Z,1014.86
2018-12-10T07:45:53.692Z,1014.86
2018-12-10T07:46:52.955Z,1014.85
2018-12-10T07:47:52.915Z,1014.85
2018-12-10T07:48:52.872Z,1014.84
2018-12-10T07:49:52.855Z,1014.83
2018-12-10T07:50:52.781Z,1014.88
2018-12-10T07:51:52.738Z,1014.88
2018-12-10T07:52:52.687Z,1014.95
2018-12-10T07:53:52.641Z,1014.94
2018-12-10T07:54:52.604Z,1014.94
2018-12-10T07:55:52.586Z,1014.92
2018-12-10T07:56:52.510Z,1014.90
2018-12-10T07:57:52.463Z,1014.97
2018-12-10T07:58:52.420Z,1015.02
2018-12-10T07:59:52.377Z,1014.98
2018-12-10T08:00:53.416Z,1014.97
2018-12-10T08:01:52.292Z,1015.03
2018-12-10T08:02:52.246Z,1015.08
2018-12-10T08:03:52.202Z,1015.08
2018-12-10T08:04:52.151Z,1015.13
2018-12-10T08:05:52.133Z,1015.15
2018-12-10T08:06:52.530Z,1015.09
2018-12-10T08:07:54.686Z,1015.11
2018-12-10T08:08:52.692Z,1015.12
2018-12-10T08:09:53.570Z,1015.13
2018-12-10T08:10:51.883Z,1015.10
2018-12-10T08:11:51.863Z,1015.11
2018-12-10T08:12:51.800Z,1015.16
2018-12-10T08:13:51.757Z,1015.12
2018-12-10T08:14:51.710Z,1015.14
2018-12-10T08:15:51.666Z,1015.16
2018-12-10T08:16:51.641Z,1015.20
2018-12-10T08:17:51.571Z,1015.25
2018-12-10T08:18:51.525Z,1015.34
2018-12-10T08:19:51.478Z,1015.39
2018-12-10T08:20:51.445Z,1015.40
2018-12-10T08:21:51.396Z,1015.37
2018-12-10T08:22:51.376Z,1015.38
2018-12-10T08:23:51.310Z,1015.44
2018-12-10T08:24:51.257Z,1015.41
2018-12-10T08:25:51.212Z,1015.44
2018-12-10T08:26:51.201Z,1015.39
2018-12-10T08:27:51.834Z,1015.38
2018-12-10T08:28:58.503Z,1015.44
2018-12-10T08:29:51.267Z,1015.46
2018-12-10T08:30:52.678Z,1015.44
2018-12-10T08:31:53.549Z,1015.51
2018-12-10T08:32:51.695Z,1015.52
2018-12-10T08:33:51.559Z,1015.55
2018-12-10T08:34:53.032Z,1015.57
2018-12-10T08:35:51.695Z,1015.57
2018-12-10T08:36:52.199Z,1015.54
2018-12-10T08:37:53.607Z,1015.55
2018-12-10T08:38:51.213Z,1015.58
2018-12-10T08:39:51.692Z,1015.54
2018-12-10T08:40:50.780Z,1015.57
2018-12-10T08:41:50.904Z,1015.63
2018-12-10T08:42:51.692Z,1015.66
2018-12-10T08:43:50.617Z,1015.59
2018-12-10T08:44:50.393Z,1015.58
2018-12-10T08:45:57.351Z,1015.56
2018-12-10T08:46:50.608Z,1015.57
2018-12-10T08:47:50.255Z,1015.53
2018-12-10T08:48:50.233Z,1015.51
2018-12-10T08:49:50.678Z,1015.48
2018-12-10T08:50:50.539Z,1015.52
2018-12-10T08:51:50.130Z,1015.56
2018-12-10T08:52:50.638Z,1015.58
2018-12-10T08:53:49.992Z,1015.60
2018-12-10T08:54:51.698Z,1015.64
2018-12-10T08:55:51.248Z,1015.64
2018-12-10T08:56:49.969Z,1015.66
2018-12-10T08:57:51.196Z,1015.67
2018-12-10T08:58:49.900Z,1015.66
2018-12-10T08:59:52.118Z,1015.70
2018-12-10T09:00:52.471Z,1015.67
2018-12-10T09:01:49.946Z,1015.67
2018-12-10T09:02:49.614Z,1015.76
2018-12-10T09:03:50.176Z,1015.72
2018-12-10T09:04:50.284Z,1015.69
2018-12-10T09:05:49.978Z,1015.72
2018-12-10T09:06:50.199Z,1015.75
2018-12-10T09:07:50.524Z,1015.73
2018-12-10T09:08:49.681Z,1015.80
2018-12-10T09:09:50.251Z,1015.80
2018-12-10T09:10:49.354Z,1015.76
2018-12-10T09:11:49.203Z,1015.81
2018-12-10T09:12:49.204Z,1015.87
2018-12-10T09:13:49.136Z,1015.85
2018-12-10T09:14:49.221Z,1015.82
2018-12-10T09:15:49.706Z,1015.85
2018-12-10T09:16:48.991Z,1015.85
2018-12-10T09:17:48.949Z,1015.86
2018-12-10T09:18:50.043Z,1015.85
2018-12-10T09:19:49.942Z,1015.83
2018-12-10T09:20:48.834Z,1015.88
2018-12-10T09:21:50.086Z,1015.91
2018-12-10T09:22:48.721Z,1015.89
2018-12-10T09:23:49.371Z,1015.89
2018-12-10T09:24:48.807Z,1015.90
2018-12-10T09:25:48.596Z,1015.97
2018-12-10T09:26:48.588Z,1015.88
2018-12-10T09:27:48.510Z,1015.89
2018-12-10T09:28:48.461Z,1015.89
2018-12-10T09:29:48.411Z,1015.86
2018-12-10T09:30:48.376Z,1015.82
2018-12-10T09:31:48.332Z,1015.86
2018-12-10T09:32:48.300Z,1015.89
2018-12-10T09:33:48.238Z,1015.94
2018-12-10T09:34:48.192Z,1015.93
2018-12-10T09:35:48.151Z,1015.94
2018-12-10T09:36:48.111Z,1015.96
2018-12-10T09:37:50.595Z,1015.94
2018-12-10T09:38:48.022Z,1015.95
2018-12-10T09:39:57.332Z,1015.94
2018-12-10T09:40:47.941Z,1015.98
2018-12-10T09:41:47.901Z,1016.02
2018-12-10T09:42:47.858Z,1016.09
2018-12-10T09:43:47.843Z,1016.10
2018-12-10T09:44:47.761Z,1016.14
2018-12-10T09:45:47.714Z,1016.09
2018-12-10T09:46:47.714Z,1016.04
2018-12-10T09:47:47.645Z,1016.04
2018-12-10T09:48:47.629Z,1016.00
2018-12-10T09:49:47.550Z,1015.99
2018-12-10T09:50:47.503Z,1015.96
2018-12-10T09:51:47.474Z,1015.97
2018-12-10T09:52:47.405Z,1015.92
2018-12-10T09:53:47.376Z,1015.99
2018-12-10T09:54:47.365Z,1015.96
2018-12-10T09:55:47.294Z,1015.98
2018-12-10T09:56:47.254Z,1015.97
2018-12-10T09:57:47.219Z,1016.03
2018-12-10T09:58:47.161Z,1016.03
2018-12-10T09:59:47.192Z,1016.04
2018-12-10T10:00:47.073Z,1016.05
2018-12-10T10:01:47.061Z,1016.10
2018-12-10T10:02:47.065Z,1016.09
2018-12-10T10:03:47.076Z,1016.13
2018-12-10T10:04:46.899Z,1016.02
2018-12-10T10:05:47.049Z,1016.07
2018-12-10T10:06:47.047Z,1016.05
2018-12-10T10:07:46.917Z,1016.05
2018-12-10T10:08:46.752Z,1016.17
2018-12-10T10:09:46.734Z,1016.04
2018-12-10T10:10:46.645Z,1015.99
2018-12-10T10:11:46.601Z,1016.01
2018-12-10T10:12:46.557Z,1015.98
2018-12-10T10:13:46.524Z,1015.92
2018-12-10T10:14:46.615Z,1015.97
2018-12-10T10:15:46.428Z,1015.98
2018-12-10T10:16:46.386Z,1016.00
2018-12-10T10:17:46.346Z,1016.02
2018-12-10T10:18:46.301Z,1016.00
2018-12-10T10:19:46.283Z,1016.00
2018-12-10T10:20:46.237Z,1016.05
2018-12-10T10:21:46.203Z,1016.11
2018-12-10T10:22:46.147Z,1016.13
2018-12-10T10:23:46.089Z,1016.16
2018-12-10T10:24:46.046Z,1016.08
2018-12-10T10:25:46.013Z,1016.08
2018-12-10T10:26:46.001Z,1016.08
2018-12-10T10:27:45.916Z,1016.05
2018-12-10T10:28:45.878Z,1016.06
2018-12-10T10:29:45.831Z,1016.04
2018-12-10T10:30:45.805Z,1016.04
2018-12-10T10:31:45.953Z,1015.99
2018-12-10T10:32:45.751Z,1016.02
2018-12-10T10:33:45.653Z,1016.03
2018-12-10T10:34:45.629Z,1015.99
2018-12-10T10:35:45.591Z,1016.06
2018-12-10T10:36:45.520Z,1016.07
2018-12-10T10:37:45.582Z,1016.09
2018-12-10T10:38:45.473Z,1016.12
2018-12-10T10:39:45.407Z,1016.17
2018-12-10T10:40:45.360Z,1016.19
2018-12-10T10:41:45.305Z,1016.12
2018-12-10T10:42:45.262Z,1016.19
2018-12-10T10:43:45.222Z,1016.16
2018-12-10T10:44:45.291Z,1016.18
2018-12-10T10:45:45.123Z,1016.22
2018-12-10T10:46:45.092Z,1016.17
2018-12-10T10:47:45.055Z,1016.14
2018-12-10T10:48:44.992Z,1016.12
2018-12-10T10:49:44.992Z,1016.09
2018-12-10T10:50:44.977Z,1016.05
2018-12-10T10:51:44.878Z,1016.07
2018-12-10T10:52:44.839Z,1016.07
2018-12-10T10:53:44.799Z,1016.07
2018-12-10T10:54:44.753Z,1016.15
2018-12-10T10:55:44.713Z,1016.02
2018-12-10T10:56:44.719Z,1016.05
2018-12-10T10:57:44.626Z,1015.97
2018-12-10T10:58:44.579Z,1016.01
2018-12-10T10:59:44.538Z,1016.02
2018-12-10T11:00:44.489Z,1015.97
2018-12-10T11:01:44.452Z,1015.98
2018-12-10T11:02:46.383Z,1016.00
2018-12-10T11:03:44.362Z,1015.94
2018-12-10T11:04:44.329Z,1015.91
2018-12-10T11:05:44.273Z,1015.95
2018-12-10T11:06:44.229Z,1015.91
2018-12-10T11:07:44.206Z,1015.85
2018-12-10T11:08:44.147Z,1015.84
2018-12-10T11:09:44.129Z,1015.84
2018-12-10T11:10:44.069Z,1015.88
2018-12-10T11:11:44.029Z,1015.89
2018-12-10T11:12:43.994Z,1015.93
2018-12-10T11:13:43.966Z,1015.90
2018-12-10T11:14:43.890Z,1015.93
2018-12-10T11:15:43.835Z,1015.89
2018-12-10T11:16:43.786Z,1015.93
2018-12-10T11:17:43.747Z,1015.92
2018-12-10T11:18:43.724Z,1015.96
2018-12-10T11:19:43.751Z,1016.02
2018-12-10T11:20:43.658Z,1016.07
2018-12-10T11:21:43.596Z,1016.00
2018-12-10T11:22:43.580Z,1015.98
2018-12-10T11:23:43.494Z,1015.97
2018-12-10T11:24:43.490Z,1015.97
2018-12-10T11:25:43.441Z,1015.99
2018-12-10T11:26:43.405Z,1015.95
2018-12-10T11:27:43.316Z,1015.95
2018-12-10T11:28:43.281Z,1015.98
2018-12-10T11:29:43.236Z,1016.00
2018-12-10T11:30:43.207Z,1015.97
2018-12-10T11:31:43.136Z,1015.99
2018-12-10T11:32:43.090Z,1015.97
2018-12-10T11:33:43.078Z,1015.97
2018-12-10T11:34:43.017Z,1015.87
2018-12-10T11:35:43.009Z,1015.83
2018-12-10T11:36:42.924Z,1015.80
2018-12-10T11:37:42.884Z,1015.81
2018-12-10T11:38:42.865Z,1015.87
2018-12-10T11:39:42.801Z,1015.87
2018-12-10T11:40:42.770Z,1015.84
2018-12-10T11:41:42.748Z,1015.81
2018-12-10T11:42:42.757Z,1015.84
2018-12-10T11:43:42.615Z,1015.80
2018-12-10T11:44:42.572Z,1015.87
2018-12-10T11:45:42.526Z,1015.86
2018-12-10T11:46:42.512Z,1015.83
2018-12-10T11:47:42.503Z,1015.86
2018-12-10T11:48:42.413Z,1015.86
2018-12-10T11:49:42.374Z,1015.82
2018-12-10T11:50:42.312Z,1015.82
2018-12-10T11:51:42.266Z,1015.79
2018-12-10T11:52:42.237Z,1015.72
2018-12-10T11:53:42.194Z,1015.74
2018-12-10T11:54:42.135Z,1015.76
2018-12-10T11:55:42.101Z,1015.77
2018-12-10T11:56:42.045Z,1015.76
2018-12-10T11:57:42.019Z,1015.72
2018-12-10T11:58:41.958Z,1015.72
2018-12-10T11:59:41.975Z,1015.72
2018-12-10T12:00:41.883Z,1015.72
2018-12-10T12:01:41.834Z,1015.67
2018-12-10T12:02:41.795Z,1015.64
2018-12-10T12:03:41.760Z,1015.63
2018-12-10T12:04:41.723Z,1015.63